createdAt,value
2018-09-16T00:02:22.462Z,99152.06
2018-09-16T00:04:51.397Z,99151.89
2018-09-16T00:07:20.207Z,99145.55
2018-09-16T00:09:49.106Z,99149.83
2018-09-16T00:12:17.973Z,99150.55
2018-09-16T00:14:47.309Z,99144.98
2018-09-16T00:17:16.257Z,99136.77
2018-09-16T00:19:45.456Z,99136.80
2018-09-16T00:22:14.556Z,99135.68
2018-09-16T00:24:43.774Z,99136.52
2018-09-16T00:27:13.194Z,99136.69
2018-09-16T00:29:42.268Z,99136.23
2018-09-16T00:32:18.239Z,99140.50
2018-09-16T00:34:47.415Z,99146.83
2018-09-16T00:37:17.159Z,99150.47
2018-09-16T00:39:45.987Z,99143.26
2018-09-16T00:42:14.955Z,99141.28
2018-09-16T00:44:44.209Z,99135.83
2018-09-16T00:47:13.104Z,99135.64
2018-09-16T00:49:41.849Z,99130.73
2018-09-16T00:52:10.573Z,99127.62
2018-09-16T00:54:39.521Z,99128.16
2018-09-16T00:57:08.378Z,99127.89
2018-09-16T00:59:37.204Z,99123.13
2018-09-16T01:02:06.168Z,99120.69
2018-09-16T01:04:35.189Z,99119.94
2018-09-16T01:07:04.170Z,99116.39
2018-09-16T01:09:33.334Z,99118.94
2018-09-16T01:12:02.395Z,99111.97
2018-09-16T01:14:31.351Z,99109.48
2018-09-16T01:17:00.409Z,99099.88
2018-09-16T01:19:30.043Z,99100.65
2018-09-16T01:21:58.924Z,99092.39
2018-09-16T01:24:27.954Z,99101.48
2018-09-16T01:26:56.891Z,99096.47
2018-09-16T01:29:25.885Z,99095.61
2018-09-16T01:31:54.806Z,99088.28
2018-09-16T01:34:23.643Z,99086.03
2018-09-16T01:36:59.124Z,99089.94
2018-09-16T01:39:29.035Z,99087.22
2018-09-16T01:41:58.133Z,99086.68
2018-09-16T01:44:27.153Z,99088.70
2018-09-16T01:46:56.118Z,99083.84
2018-09-16T01:49:25.113Z,99080.81
2018-09-16T01:51:53.869Z,99075.39
2018-09-16T01:54:22.796Z,99076.01
2018-09-16T01:56:51.578Z,99074.78
2018-09-16T01:59:20.674Z,99068.77
2018-09-16T02:01:50.179Z,99069.03
2018-09-16T02:04:18.952Z,99066.91
2018-09-16T02:06:47.801Z,99069.70
2018-09-16T02:09:16.814Z,99062.12
2018-09-16T02:11:45.448Z,99064.52
2018-09-16T02:14:14.319Z,99052.59
2018-09-16T02:16:43.283Z,99056.75
2018-09-16T02:19:12.279Z,99051.13
2018-09-16T02:21:41.517Z,99053.62
2018-09-16T02:24:10.493Z,99054.38
2018-09-16T02:26:39.416Z,99051.20
2018-09-16T02:29:08.259Z,99050.00
2018-09-16T02:31:37.185Z,99044.39
2018-09-16T02:34:06.167Z,99048.55
2018-09-16T02:36:35.135Z,99044.46
2018-09-16T02:39:04.840Z,99045.18
2018-09-16T02:41:33.653Z,99046.74
2018-09-16T02:44:03.230Z,99043.28
2018-09-16T02:46:32.056Z,99041.19
2018-09-16T02:49:00.837Z,99044.73
2018-09-16T02:51:29.780Z,99040.69
2018-09-16T02:53:58.670Z,99033.91
2018-09-16T02:56:27.845Z,99033.53
2018-09-16T02:58:56.817Z,99037.34
2018-09-16T03:01:25.972Z,99033.33
2018-09-16T03:03:54.971Z,99034.38
2018-09-16T03:06:28.985Z,99038.23
2018-09-16T03:08:57.927Z,99034.04
2018-09-16T03:11:26.982Z,99036.64
2018-09-16T03:13:55.959Z,99026.59
2018-09-16T03:16:25.073Z,99031.13
2018-09-16T03:18:54.226Z,99028.81
2018-09-16T03:21:23.070Z,99016.70
2018-09-16T03:23:52.588Z,99021.31
2018-09-16T03:26:21.618Z,99022.17
2018-09-16T03:28:50.600Z,99016.43
2018-09-16T03:31:19.622Z,99020.45
2018-09-16T03:33:48.483Z,99022.17
2018-09-16T03:36:17.368Z,99014.88
2018-09-16T03:38:46.359Z,99019.33
2018-09-16T03:41:15.553Z,99012.59
2018-09-16T03:43:44.444Z,99018.63
2018-09-16T03:46:16.030Z,99019.67
2018-09-16T03:48:44.850Z,99019.80
2018-09-16T03:51:13.796Z,99023.86
2018-09-16T03:53:42.661Z,99024.03
2018-09-16T03:56:12.374Z,99023.34
2018-09-16T03:58:41.256Z,99019.80
2018-09-16T04:01:10.175Z,99024.10
2018-09-16T04:03:39.092Z,99029.02
2018-09-16T04:06:08.211Z,99024.70
2018-09-16T04:08:37.894Z,99029.77
2018-09-16T04:11:06.999Z,99027.97
2018-09-16T04:13:35.889Z,99023.10
2018-09-16T04:16:05.140Z,99016.63
2018-09-16T04:18:34.108Z,99014.99
2018-09-16T04:21:03.122Z,99013.53
2018-09-16T04:23:36.816Z,99015.02
2018-09-16T04:26:06.081Z,99022.45
2018-09-16T04:28:34.941Z,99034.78
2018-09-16T04:31:03.932Z,99033.44
2018-09-16T04:33:32.947Z,99033.62
2018-09-16T04:36:02.514Z,99029.89
2018-09-16T04:38:31.483Z,99032.50
2018-09-16T04:41:00.418Z,99029.64
2018-09-16T04:43:29.404Z,99023.08
2018-09-16T04:45:58.857Z,99026.50
2018-09-16T04:48:27.756Z,99028.52
2018-09-16T04:50:56.782Z,99039.01
2018-09-16T04:53:25.435Z,99036.80
2018-09-16T04:55:55.075Z,99040.23
2018-09-16T04:58:23.962Z,99047.02
2018-09-16T05:00:53.144Z,99042.63
2018-09-16T05:03:22.147Z,99051.02
2018-09-16T05:05:51.009Z,99040.58
2018-09-16T05:08:20.152Z,99047.98
2018-09-16T05:10:49.570Z,99049.16
2018-09-16T05:13:19.187Z,99042.09
2018-09-16T05:15:48.135Z,99044.17
2018-09-16T05:18:17.122Z,99045.04
2018-09-16T05:20:46.032Z,99029.56
2018-09-16T05:23:15.191Z,99033.87
2018-09-16T05:25:44.017Z,99025.80
2018-09-16T05:28:12.835Z,99023.45
2018-09-16T05:30:41.749Z,99019.80
2018-09-16T05:33:10.702Z,99016.84
2018-09-16T05:35:39.626Z,99028.30
2018-09-16T05:38:08.806Z,99017.34
2018-09-16T05:40:38.229Z,99017.95
2018-09-16T05:43:07.170Z,99017.52
2018-09-16T05:45:36.239Z,99016.42
2018-09-16T05:48:05.151Z,99020.90
2018-09-16T05:50:34.217Z,99015.59
2018-09-16T05:53:03.220Z,99019.20
2018-09-16T05:55:31.985Z,99014.94
2018-09-16T05:58:01.412Z,99015.00
2018-09-16T06:00:30.318Z,99013.02
2018-09-16T06:02:59.261Z,99020.33
2018-09-16T06:05:28.288Z,99018.81
2018-09-16T06:07:57.008Z,99025.44
2018-09-16T06:10:25.834Z,99017.54
2018-09-16T06:12:54.627Z,99017.14
2018-09-16T06:15:23.864Z,99008.16
2018-09-16T06:17:52.862Z,99012.91
2018-09-16T06:20:21.872Z,99020.56
2018-09-16T06:22:52.285Z,99019.00
2018-09-16T06:25:21.345Z,99013.92
2018-09-16T06:27:50.534Z,99017.22
2018-09-16T06:30:19.731Z,99018.19
2018-09-16T06:32:48.542Z,99014.48
2018-09-16T06:35:17.355Z,99010.64
2018-09-16T06:37:46.345Z,99012.70
2018-09-16T06:40:15.286Z,99012.84
2018-09-16T06:42:44.627Z,99012.95
2018-09-16T06:45:14.133Z,99005.49
2018-09-16T06:47:43.701Z,99001.58
2018-09-16T06:50:12.753Z,98994.94
2018-09-16T06:52:42.261Z,98993.95
2018-09-16T06:55:12.045Z,98996.50
2018-09-16T06:57:41.124Z,99001.19
2018-09-16T07:00:10.766Z,99000.13
2018-09-16T07:02:39.640Z,98997.98
2018-09-16T07:05:08.931Z,98996.91
2018-09-16T07:07:37.833Z,98998.79
2018-09-16T07:10:06.836Z,98997.23
2018-09-16T07:12:36.050Z,99003.29
2018-09-16T07:15:04.962Z,99009.00
2018-09-16T07:17:34.310Z,99011.92
2018-09-16T07:20:03.331Z,99018.44
2018-09-16T07:22:32.523Z,99020.56
2018-09-16T07:25:01.431Z,99018.27
2018-09-16T07:27:30.447Z,99023.49
2018-09-16T07:30:00.270Z,99020.36
2018-09-16T07:32:29.198Z,99016.83
2018-09-16T07:34:58.214Z,99016.28
2018-09-16T07:37:27.423Z,99005.39
2018-09-16T07:39:56.170Z,99011.69
2018-09-16T07:42:25.170Z,99004.88
2018-09-16T07:44:55.048Z,99005.16
2018-09-16T07:47:24.873Z,98999.30
2018-09-16T07:49:53.788Z,99003.27
2018-09-16T07:52:22.788Z,98999.52
2018-09-16T07:54:51.909Z,99000.14
2018-09-16T07:57:20.798Z,99013.45
2018-09-16T07:59:50.266Z,99004.27
2018-09-16T08:02:19.268Z,99005.13
2018-09-16T08:04:48.192Z,99005.61
2018-09-16T08:07:17.470Z,99002.83
2018-09-16T08:09:47.120Z,99008.79
2018-09-16T08:12:16.256Z,99002.20
2018-09-16T08:14:45.159Z,98997.47
2018-09-16T08:17:13.981Z,99000.14
2018-09-16T08:19:43.068Z,98998.80
2018-09-16T08:22:12.217Z,99000.63
2018-09-16T08:24:41.600Z,99004.02
2018-09-16T08:27:10.328Z,99011.17
2018-09-16T08:29:39.332Z,99008.33
2018-09-16T08:32:08.393Z,99010.99
2018-09-16T08:34:37.099Z,99008.25
2018-09-16T08:37:06.013Z,98998.60
2018-09-16T08:39:34.918Z,98998.74
2018-09-16T08:42:03.788Z,98999.53
2018-09-16T08:44:32.877Z,98997.30
2018-09-16T08:47:01.699Z,98997.25
2018-09-16T08:49:32.193Z,98988.32
2018-09-16T08:52:01.700Z,98997.36
2018-09-16T08:54:30.842Z,98992.28
2018-09-16T08:57:00.042Z,98989.92
2018-09-16T08:59:29.067Z,98982.06
2018-09-16T09:01:58.147Z,98977.05
2018-09-16T09:04:27.194Z,98979.39
2018-09-16T09:06:56.166Z,98973.97
2018-09-16T09:09:25.670Z,98972.85
2018-09-16T09:11:54.738Z,98964.39
2018-09-16T09:14:23.755Z,98966.73
2018-09-16T09:16:52.555Z,98971.41
2018-09-16T09:19:21.449Z,98967.97
2018-09-16T09:21:50.344Z,98966.98
2018-09-16T09:24:19.343Z,98966.45
2018-09-16T09:26:48.320Z,98968.03
2018-09-16T09:29:17.567Z,98958.02
2018-09-16T09:31:46.831Z,98955.64
2018-09-16T09:34:15.795Z,98954.60
2018-09-16T09:36:44.863Z,98958.47
2018-09-16T09:39:14.309Z,98953.67
2018-09-16T09:41:43.417Z,98946.63
2018-09-16T09:44:12.436Z,98948.09
2018-09-16T09:46:42.107Z,98944.39
2018-09-16T09:49:11.814Z,98944.16
2018-09-16T09:51:40.718Z,98933.50
2018-09-16T09:54:10.035Z,98930.60
2018-09-16T09:56:40.837Z,98936.74
2018-09-16T09:59:11.701Z,98930.69
2018-09-16T10:01:40.682Z,98927.20
2018-09-16T10:05:12.922Z,98922.81
2018-09-16T10:07:43.137Z,98919.81
2018-09-16T10:10:12.579Z,98916.32
2018-09-16T10:12:42.924Z,98907.75
2018-09-16T10:15:12.177Z,98907.56
2018-09-16T10:17:41.947Z,98905.53
2018-09-16T10:20:10.879Z,98904.27
2018-09-16T10:22:40.095Z,98906.34
2018-09-16T10:25:09.427Z,98891.64
2018-09-16T10:27:39.173Z,98892.06
2018-09-16T10:30:08.486Z,98891.45
2018-09-16T10:32:38.152Z,98888.39
2018-09-16T10:35:07.886Z,98886.24
2018-09-16T10:37:37.138Z,98879.91
2018-09-16T10:40:06.336Z,98874.68
2018-09-16T10:42:43.441Z,98867.50
2018-09-16T10:45:12.253Z,98867.09
2018-09-16T10:47:41.730Z,98862.98
2018-09-16T10:50:10.852Z,98860.81
2018-09-16T10:52:39.716Z,98859.97
2018-09-16T10:55:08.464Z,98856.91
2018-09-16T10:57:41.854Z,98848.45
2018-09-16T11:00:12.450Z,98850.49
2018-09-16T11:02:41.344Z,98842.89
2018-09-16T11:05:12.446Z,98844.77
2018-09-16T11:07:41.777Z,98841.19
2018-09-16T11:10:11.169Z,98836.41
2018-09-16T11:12:39.994Z,98840.88
2018-09-16T11:15:09.370Z,98837.43
2018-09-16T11:17:38.239Z,98837.66
2018-09-16T11:20:08.534Z,98838.02
2018-09-16T11:22:37.759Z,98844.64
2018-09-16T11:25:06.904Z,98838.83
2018-09-16T11:27:36.915Z,98833.33
2018-09-16T11:30:05.877Z,98834.22
2018-09-16T11:32:34.880Z,98830.18
2018-09-16T11:35:04.120Z,98837.37
2018-09-16T11:37:32.900Z,98828.64
2018-09-16T11:40:01.993Z,98823.00
2018-09-16T11:42:31.008Z,98828.16
2018-09-16T11:44:59.797Z,98823.00
2018-09-16T11:47:28.719Z,98816.36
2018-09-16T11:49:58.109Z,98812.93
2018-09-16T11:52:27.902Z,98799.73
2018-09-16T11:54:58.512Z,98803.39
2018-09-16T11:57:27.628Z,98804.11
2018-09-16T11:59:57.350Z,98810.64
2018-09-16T12:02:26.315Z,98803.16
2018-09-16T12:04:55.438Z,98797.63
2018-09-16T12:07:25.148Z,98788.59
2018-09-16T12:09:54.631Z,98788.69
2018-09-16T12:12:23.514Z,98790.91
2018-09-16T12:14:52.463Z,98789.37
2018-09-16T12:17:22.785Z,98779.72
2018-09-16T12:19:52.154Z,98776.98
2018-09-16T12:22:21.430Z,98774.56
2018-09-16T12:24:50.354Z,98774.72
2018-09-16T12:27:19.479Z,98767.94
2018-09-16T12:29:48.436Z,98765.89
2018-09-16T12:32:18.028Z,98766.06
2018-09-16T12:34:46.983Z,98760.41
2018-09-16T12:37:16.228Z,98758.09
2018-09-16T12:39:45.217Z,98755.61
2018-09-16T12:42:14.117Z,98760.95
2018-09-16T12:44:42.959Z,98755.16
2018-09-16T12:47:11.790Z,98751.87
2018-09-16T12:49:41.026Z,98741.08
2018-09-16T12:52:09.922Z,98750.92
2018-09-16T12:54:39.235Z,98739.31
2018-09-16T12:57:08.283Z,98739.31
2018-09-16T12:59:37.530Z,98734.05
2018-09-16T13:02:06.597Z,98735.97
2018-09-16T13:04:35.692Z,98739.77
2018-09-16T13:07:04.527Z,98733.58
2018-09-16T13:09:33.803Z,98734.09
2018-09-16T13:12:02.912Z,98731.19
2018-09-16T13:14:35.897Z,98726.09
2018-09-16T13:17:04.854Z,98727.86
2018-09-16T13:19:34.050Z,98724.09
2018-09-16T13:22:03.617Z,98713.80
2018-09-16T13:24:33.807Z,98718.89
2018-09-16T13:27:02.804Z,98714.73
2018-09-16T13:29:32.634Z,98709.23
2018-09-16T13:32:01.715Z,98712.92
2018-09-16T13:34:30.782Z,98702.17
2018-09-16T13:36:59.914Z,98700.52
2018-09-16T13:39:29.027Z,98697.17
2018-09-16T13:41:58.057Z,98688.28
2018-09-16T13:44:27.066Z,98693.11
2018-09-16T13:46:55.977Z,98691.33
2018-09-16T13:49:25.049Z,98686.84
2018-09-16T13:51:54.119Z,98682.61
2018-09-16T13:54:22.918Z,98676.81
2018-09-16T13:56:52.353Z,98675.76
2018-09-16T13:59:21.350Z,98677.48
2018-09-16T14:01:50.305Z,98670.78
2018-09-16T14:04:19.849Z,98676.45
2018-09-16T14:06:48.910Z,98669.07
2018-09-16T14:09:18.141Z,98661.77
2018-09-16T14:11:46.999Z,98666.78
2018-09-16T14:14:17.234Z,98665.91
2018-09-16T14:16:46.388Z,98663.30
2018-09-16T14:19:15.420Z,98667.65
2018-09-16T14:21:44.360Z,98665.67
2018-09-16T14:24:13.579Z,98657.03
2018-09-16T14:26:42.465Z,98652.52
2018-09-16T14:29:11.427Z,98650.91
2018-09-16T14:31:40.365Z,98654.20
2018-09-16T14:34:09.541Z,98650.68
2018-09-16T14:42:39.279Z,98652.34
2018-09-16T14:45:08.443Z,98649.05
2018-09-16T14:47:37.423Z,98642.64
2018-09-16T14:50:06.814Z,98647.10
2018-09-16T14:52:35.871Z,98648.52
2018-09-16T14:55:04.963Z,98642.77
2018-09-16T14:57:34.061Z,98644.31
2018-09-16T15:00:03.309Z,98632.03
2018-09-16T15:02:32.787Z,98635.27
2018-09-16T15:05:05.132Z,98633.16
2018-09-16T15:07:34.753Z,98636.38
2018-09-16T15:10:03.834Z,98624.55
2018-09-16T15:12:34.565Z,98633.66
2018-09-16T15:15:03.635Z,98633.75
2018-09-16T15:17:39.197Z,98626.80
2018-09-16T15:20:08.608Z,98623.76
2018-09-16T15:22:37.695Z,98630.66
2018-09-16T15:25:08.813Z,98625.00
2018-09-16T15:27:37.886Z,98618.19
2018-09-16T15:30:07.264Z,98631.03
2018-09-16T15:32:39.173Z,98629.27
2018-09-16T15:35:09.458Z,98624.03
2018-09-16T15:37:40.775Z,98622.19
2018-09-16T15:40:09.967Z,98620.55
2018-09-16T15:42:39.222Z,98614.09
2018-09-16T15:45:08.684Z,98610.48
2018-09-16T15:47:39.542Z,98607.93
2018-09-16T15:50:08.603Z,98608.01
2018-09-16T15:52:40.301Z,98611.39
2018-09-16T15:55:09.384Z,98606.42
2018-09-16T15:57:38.813Z,98607.52
2018-09-16T16:00:08.007Z,98606.30
2018-09-16T16:02:40.506Z,98607.66
2018-09-16T16:05:09.386Z,98600.81
2018-09-16T16:07:38.217Z,98603.31
2018-09-16T16:10:07.391Z,98599.41
2018-09-16T16:12:36.133Z,98601.19
2018-09-16T16:15:05.572Z,98599.97
2018-09-16T16:17:34.703Z,98600.16
2018-09-16T16:20:03.562Z,98599.84
2018-09-16T16:22:32.800Z,98594.57
2018-09-16T16:25:01.445Z,98600.70
2018-09-16T16:27:30.532Z,98593.36
2018-09-16T16:29:59.973Z,98598.72
2018-09-16T16:32:28.898Z,98596.09
2018-09-16T16:34:58.002Z,98599.70
2018-09-16T16:37:27.098Z,98600.92
2018-09-16T16:39:56.113Z,98605.87
2018-09-16T16:42:25.117Z,98608.25
2018-09-16T16:44:54.090Z,98603.58
2018-09-16T16:47:23.076Z,98612.30
2018-09-16T16:49:51.956Z,98603.64
2018-09-16T16:52:21.101Z,98606.13
2018-09-16T16:55:53.541Z,98606.64
2018-09-16T16:58:22.339Z,98606.49
2018-09-16T17:00:51.505Z,98605.33
2018-09-16T17:03:20.549Z,98614.73
2018-09-16T17:05:49.816Z,98616.00
2018-09-16T17:08:18.780Z,98619.95
2018-09-16T17:10:47.593Z,98625.55
2018-09-16T17:13:16.661Z,98626.83
2018-09-16T17:15:45.770Z,98625.92
2018-09-16T17:18:15.485Z,98623.34
2018-09-16T17:20:44.500Z,98622.35
2018-09-16T17:23:13.469Z,98621.71
2018-09-16T17:25:42.559Z,98624.38
2018-09-16T17:28:11.684Z,98634.53
2018-09-16T17:30:40.540Z,98627.17
2018-09-16T17:33:09.384Z,98631.79
2018-09-16T17:35:38.443Z,98628.48
2018-09-16T17:38:07.577Z,98631.01
2018-09-16T17:40:36.683Z,98638.25
2018-09-16T17:43:05.979Z,98642.30
2018-09-16T17:45:34.909Z,98636.01
2018-09-16T17:48:04.112Z,98647.11
2018-09-16T17:50:33.035Z,98648.04
2018-09-16T17:53:01.853Z,98654.55
2018-09-16T17:55:31.606Z,98653.33
2018-09-16T17:58:00.336Z,98647.72
2018-09-16T18:00:29.218Z,98654.27
2018-09-16T18:02:58.288Z,98657.05
2018-09-16T18:05:27.310Z,98658.45
2018-09-16T18:07:56.281Z,98658.78
2018-09-16T18:10:25.802Z,98656.34
2018-09-16T18:12:54.779Z,98658.80
2018-09-16T18:15:23.727Z,98661.28
2018-09-16T18:17:52.687Z,98660.32
2018-09-16T18:20:25.644Z,98668.41
2018-09-16T18:22:55.392Z,98664.72
2018-09-16T18:25:24.683Z,98672.80
2018-09-16T18:27:54.015Z,98668.64
2018-09-16T18:30:23.591Z,98676.70
2018-09-16T18:32:52.775Z,98675.90
2018-09-16T18:35:21.844Z,98682.69
2018-09-16T18:37:50.920Z,98682.48
2018-09-16T18:40:19.797Z,98679.70
2018-09-16T18:42:48.440Z,98681.71
2018-09-16T18:45:17.359Z,98688.05
2018-09-16T18:47:46.386Z,98683.25
2018-09-16T18:50:16.482Z,98693.13
2018-09-16T18:52:45.665Z,98695.02
2018-09-16T18:55:14.656Z,98694.61
2018-09-16T18:57:44.365Z,98703.87
2018-09-16T19:00:13.134Z,98699.18
2018-09-16T19:02:42.714Z,98701.18
2018-09-16T19:05:11.824Z,98700.16
2018-09-16T19:07:40.926Z,98704.57
2018-09-16T19:10:10.085Z,98702.10
2018-09-16T19:12:39.044Z,98699.05
2018-09-16T19:15:07.987Z,98698.56
2018-09-16T19:17:37.026Z,98689.41
2018-09-16T19:20:06.195Z,98698.56
2018-09-16T19:22:35.245Z,98700.59
2018-09-16T19:25:04.183Z,98700.08
2018-09-16T19:27:33.096Z,98691.50
2018-09-16T19:30:02.638Z,98697.19
2018-09-16T19:32:32.427Z,98693.89
2018-09-16T19:35:01.078Z,98699.31
2018-09-16T19:37:30.204Z,98699.34
2018-09-16T19:39:59.229Z,98704.02
2018-09-16T19:42:28.319Z,98708.62
2018-09-16T19:44:57.310Z,98706.80
2018-09-16T19:47:26.115Z,98712.29
2018-09-16T19:49:54.826Z,98714.45
2018-09-16T19:52:26.424Z,98708.73
2018-09-16T19:54:55.291Z,98714.26
2018-09-16T19:57:24.172Z,98714.97
2018-09-16T19:59:53.166Z,98716.33
2018-09-16T20:02:22.327Z,98717.41
2018-09-16T20:04:51.349Z,98715.79
2018-09-16T20:07:20.373Z,98712.05
2018-09-16T20:09:49.237Z,98711.72
2018-09-16T20:12:18.300Z,98716.06
2018-09-16T20:14:47.273Z,98715.73
2018-09-16T20:17:16.129Z,98711.91
2018-09-16T20:19:44.813Z,98708.59
2018-09-16T20:22:14.197Z,98713.36
2018-09-16T20:24:43.362Z,98716.37
2018-09-16T20:27:15.753Z,98712.56
2018-09-16T20:29:44.986Z,98711.21
2018-09-16T20:32:13.917Z,98720.48
2018-09-16T20:34:45.139Z,98721.21
2018-09-16T20:37:14.393Z,98721.11
2018-09-16T20:39:43.641Z,98716.37
2018-09-16T20:42:12.732Z,98717.84
2018-09-16T20:44:41.750Z,98719.94
2018-09-16T20:47:12.381Z,98726.48
2018-09-16T20:49:41.330Z,98726.08
2018-09-16T20:52:10.654Z,98732.52
2018-09-16T20:54:40.634Z,98732.55
2018-09-16T20:57:13.365Z,98731.07
2018-09-16T20:59:42.605Z,98733.86
2018-09-16T21:02:11.366Z,98730.59
2018-09-16T21:04:40.312Z,98724.11
2018-09-16T21:07:09.102Z,98728.55
2018-09-16T21:09:38.017Z,98733.81
2018-09-16T21:12:06.664Z,98724.97
2018-09-16T21:14:35.452Z,98722.59
2018-09-16T21:17:04.218Z,98728.23
2018-09-16T21:20:36.548Z,98723.88
2018-09-16T21:23:05.997Z,98720.91
2018-09-16T21:25:35.011Z,98719.81
2018-09-16T21:28:04.056Z,98722.19
2018-09-16T21:30:33.150Z,98721.95
2018-09-16T21:33:02.128Z,98724.01
2018-09-16T21:35:32.224Z,98722.64
2018-09-16T21:38:01.422Z,98721.56
2018-09-16T21:40:31.108Z,98718.00
2018-09-16T21:42:59.931Z,98722.67
2018-09-16T21:45:28.959Z,98720.51
2018-09-16T21:47:57.761Z,98716.44
2018-09-16T21:50:26.861Z,98717.95
2018-09-16T21:52:55.757Z,98708.88
2018-09-16T21:55:24.954Z,98716.27
2018-09-16T21:57:53.811Z,98713.89
2018-09-16T22:00:22.540Z,98714.06
2018-09-16T22:02:51.525Z,98715.23
2018-09-16T22:05:20.458Z,98714.84
2018-09-16T22:07:49.968Z,98709.44
2018-09-16T22:10:19.108Z,98712.34
2018-09-16T22:12:49.837Z,98704.39
2018-09-16T22:15:18.786Z,98706.59
2018-09-16T22:17:48.732Z,98707.32
2018-09-16T22:20:17.716Z,98714.05
2018-09-16T22:22:47.284Z,98712.85
2018-09-16T22:25:16.709Z,98715.16
2018-09-16T22:27:46.004Z,98716.36
2018-09-16T22:30:15.232Z,98720.50
2018-09-16T22:32:44.230Z,98721.16
2018-09-16T22:35:13.671Z,98720.81
2018-09-16T22:37:42.672Z,98717.66
2018-09-16T22:40:11.601Z,98720.54
2018-09-16T22:42:40.512Z,98725.30
2018-09-16T22:45:10.421Z,98729.94
2018-09-16T22:47:40.130Z,98735.13
2018-09-16T22:50:09.116Z,98729.94
2018-09-16T22:52:38.317Z,98728.59
2018-09-16T22:55:07.159Z,98729.95
2018-09-16T22:57:36.259Z,98738.16
2018-09-16T23:00:05.658Z,98734.50
2018-09-16T23:02:34.528Z,98738.99
2018-09-16T23:05:03.981Z,98745.42
2018-09-16T23:07:32.784Z,98739.83
2018-09-16T23:10:01.509Z,98736.21
2018-09-16T23:12:32.534Z,98732.58
2018-09-16T23:15:02.333Z,98735.23
2018-09-16T23:17:31.883Z,98730.37
2018-09-16T23:20:00.906Z,98725.78
2018-09-16T23:22:30.493Z,98733.14
2018-09-16T23:25:00.352Z,98726.69
2018-09-16T23:27:29.183Z,98733.24
2018-09-16T23:29:58.987Z,98729.72
2018-09-16T23:32:28.972Z,98734.78
2018-09-16T23:34:58.954Z,98737.36
2018-09-16T23:37:28.756Z,98729.58
2018-09-16T23:39:57.839Z,98737.08
2018-09-16T23:42:26.975Z,98732.41
2018-09-16T23:44:56.139Z,98731.94
2018-09-16T23:47:26.252Z,98732.38
2018-09-16T23:52:57.001Z,98731.55
2018-09-16T23:55:25.400Z,98732.22
2018-09-16T23:57:53.821Z,98739.32
